Terminal Aerodrome Forecast
Issued by NWS Blacksburg, VA

Home | Current Version | Previous Version | Text Only | Print | Product List | Glossary On
Versions: 1 2 3 4 5 6 7 8 9 10 11 12 13 14 15 16 17 18 19 20
000
FTUS41 KRNK 221727
TAFLYH
TAF
KLYH 221727Z 2218/2318 18010G20KT P6SM VCSH SCT015 OVC020
     FM222200 05005KT P6SM VCSH OVC015
     FM230100 04005KT 6SM -DZ BR OVC008
     FM231200 VRB03KT 4SM -DZ BR OVC003
     FM231700 00000KT 5SM -DZ BR BKN015=

USA.gov is the U.S. government's official web portal to all federal, state and local government web resources and services.